sensor_id;sensor_type;location;lat;lon;timestamp;temperature;humidity
2603;DHT22;1311;47.966;7.958;2023-09-30T00:01:24;16.00;99.90
2603;DHT22;1311;47.966;7.958;2023-09-30T00:03:51;16.00;99.90
2603;DHT22;1311;47.966;7.958;2023-09-30T00:06:17;16.00;99.90
2603;DHT22;1311;47.966;7.958;2023-09-30T00:08:44;16.00;99.90
2603;DHT22;1311;47.966;7.958;2023-09-30T00:11:15;16.00;99.90
2603;DHT22;1311;47.966;7.958;2023-09-30T00:13:42;16.00;99.90
2603;DHT22;1311;47.966;7.958;2023-09-30T00:16:09;16.00;99.90
2603;DHT22;1311;47.966;7.958;2023-09-30T00:18:36;15.90;99.90
2603;DHT22;1311;47.966;7.958;2023-09-30T00:21:03;15.90;99.90
2603;DHT22;1311;47.966;7.958;2023-09-30T00:23:29;15.90;99.90
2603;DHT22;1311;47.966;7.958;2023-09-30T00:25:56;15.80;99.90
2603;DHT22;1311;47.966;7.958;2023-09-30T00:28:24;15.80;99.90
2603;DHT22;1311;47.966;7.958;2023-09-30T00:30:51;15.70;99.90
2603;DHT22;1311;47.966;7.958;2023-09-30T00:33:18;15.60;99.90
2603;DHT22;1311;47.966;7.958;2023-09-30T00:35:45;15.50;99.90
2603;DHT22;1311;47.966;7.958;2023-09-30T00:38:11;15.50;99.90
2603;DHT22;1311;47.966;7.958;2023-09-30T00:40:39;15.40;99.90
2603;DHT22;1311;47.966;7.958;2023-09-30T00:43:18;15.40;99.90
2603;DHT22;1311;47.966;7.958;2023-09-30T00:45:47;15.30;99.90
2603;DHT22;1311;47.966;7.958;2023-09-30T00:48:14;15.30;99.90
2603;DHT22;1311;47.966;7.958;2023-09-30T00:50:41;15.30;99.90
2603;DHT22;1311;47.966;7.958;2023-09-30T00:53:08;15.30;99.90
2603;DHT22;1311;47.966;7.958;2023-09-30T00:55:36;15.30;99.90
2603;DHT22;1311;47.966;7.958;2023-09-30T00:58:03;15.30;99.90
2603;DHT22;1311;47.966;7.958;2023-09-30T01:00:30;15.20;99.90
2603;DHT22;1311;47.966;7.958;2023-09-30T01:02:59;15.10;99.90
2603;DHT22;1311;47.966;7.958;2023-09-30T01:05:29;15.00;99.90
2603;DHT22;1311;47.966;7.958;2023-09-30T01:07:56;14.90;99.90
2603;DHT22;1311;47.966;7.958;2023-09-30T01:10:23;14.80;99.90
2603;DHT22;1311;47.966;7.958;2023-09-30T01:12:50;14.70;99.90
2603;DHT22;1311;47.966;7.958;2023-09-30T01:15:17;14.70;99.90
2603;DHT22;1311;47.966;7.958;2023-09-30T01:17:44;14.60;99.90
2603;DHT22;1311;47.966;7.958;2023-09-30T01:20:14;14.50;99.90
2603;DHT22;1311;47.966;7.958;2023-09-30T01:22:43;14.40;99.90
2603;DHT22;1311;47.966;7.958;2023-09-30T01:25:10;14.40;99.90
2603;DHT22;1311;47.966;7.958;2023-09-30T01:27:37;14.40;99.90
2603;DHT22;1311;47.966;7.958;2023-09-30T01:30:05;14.30;99.90
2603;DHT22;1311;47.966;7.958;2023-09-30T01:32:36;14.20;99.90
2603;DHT22;1311;47.966;7.958;2023-09-30T01:35:03;14.20;99.90
2603;DHT22;1311;47.966;7.958;2023-09-30T01:37:30;14.10;99.90
2603;DHT22;1311;47.966;7.958;2023-09-30T01:39:58;14.10;99.90
2603;DHT22;1311;47.966;7.958;2023-09-30T01:42:25;14.10;99.90
2603;DHT22;1311;47.966;7.958;2023-09-30T01:44:52;14.00;99.90
2603;DHT22;1311;47.966;7.958;2023-09-30T01:47:19;13.90;99.90
2603;DHT22;1311;47.966;7.958;2023-09-30T01:49:46;13.80;99.90
2603;DHT22;1311;47.966;7.958;2023-09-30T01:52:13;13.80;99.90
2603;DHT22;1311;47.966;7.958;2023-09-30T01:54:40;13.80;99.90
2603;DHT22;1311;47.966;7.958;2023-09-30T01:57:08;13.80;99.90
2603;DHT22;1311;47.966;7.958;2023-09-30T01:59:35;13.70;99.90
2603;DHT22;1311;47.966;7.958;2023-09-30T02:02:02;13.60;99.90
2603;DHT22;1311;47.966;7.958;2023-09-30T02:04:29;13.60;99.90
2603;DHT22;1311;47.966;7.958;2023-09-30T02:06:56;13.50;99.90
2603;DHT22;1311;47.966;7.958;2023-09-30T02:09:23;13.50;99.90
2603;DHT22;1311;47.966;7.958;2023-09-30T02:11:49;13.40;99.90
2603;DHT22;1311;47.966;7.958;2023-09-30T02:14:17;13.40;99.90
2603;DHT22;1311;47.966;7.958;2023-09-30T02:16:44;13.30;99.90
2603;DHT22;1311;47.966;7.958;2023-09-30T02:19:11;13.30;99.90
2603;DHT22;1311;47.966;7.958;2023-09-30T02:21:38;13.30;99.90
2603;DHT22;1311;47.966;7.958;2023-09-30T02:24:06;13.20;99.90
2603;DHT22;1311;47.966;7.958;2023-09-30T02:26:33;13.20;99.90
2603;DHT22;1311;47.966;7.958;2023-09-30T02:29:00;13.20;99.90
2603;DHT22;1311;47.966;7.958;2023-09-30T02:31:28;13.20;99.90
2603;DHT22;1311;47.966;7.958;2023-09-30T02:33:54;13.10;99.90
2603;DHT22;1311;47.966;7.958;2023-09-30T02:36:21;13.10;99.90
2603;DHT22;1311;47.966;7.958;2023-09-30T02:38:48;13.10;99.90
2603;DHT22;1311;47.966;7.958;2023-09-30T02:41:15;13.00;99.90
2603;DHT22;1311;47.966;7.958;2023-09-30T02:43:42;13.00;99.90
2603;DHT22;1311;47.966;7.958;2023-09-30T02:46:09;13.00;99.90
2603;DHT22;1311;47.966;7.958;2023-09-30T02:48:39;13.00;99.90
2603;DHT22;1311;47.966;7.958;2023-09-30T02:51:09;12.90;99.90
2603;DHT22;1311;47.966;7.958;2023-09-30T02:53:36;12.90;99.90
2603;DHT22;1311;47.966;7.958;2023-09-30T02:56:03;12.90;99.90
2603;DHT22;1311;47.966;7.958;2023-09-30T02:58:30;12.90;99.90
2603;DHT22;1311;47.966;7.958;2023-09-30T03:00:57;12.90;99.90
2603;DHT22;1311;47.966;7.958;2023-09-30T03:03:24;12.80;99.90
2603;DHT22;1311;47.966;7.958;2023-09-30T03:05:52;12.80;99.90
2603;DHT22;1311;47.966;7.958;2023-09-30T03:08:19;12.80;99.90
2603;DHT22;1311;47.966;7.958;2023-09-30T03:10:47;12.80;99.90
2603;DHT22;1311;47.966;7.958;2023-09-30T03:13:14;12.80;99.90
2603;DHT22;1311;47.966;7.958;2023-09-30T03:15:41;12.90;99.90
2603;DHT22;1311;47.966;7.958;2023-09-30T03:18:07;13.00;99.90
2603;DHT22;1311;47.966;7.958;2023-09-30T03:20:34;13.00;99.90
2603;DHT22;1311;47.966;7.958;2023-09-30T03:23:06;13.00;99.90
2603;DHT22;1311;47.966;7.958;2023-09-30T03:25:34;13.10;99.90
2603;DHT22;1311;47.966;7.958;2023-09-30T03:28:00;13.20;99.90
2603;DHT22;1311;47.966;7.958;2023-09-30T03:30:27;13.20;99.90
2603;DHT22;1311;47.966;7.958;2023-09-30T03:32:55;13.20;99.90
2603;DHT22;1311;47.966;7.958;2023-09-30T03:35:22;13.10;99.90
2603;DHT22;1311;47.966;7.958;2023-09-30T03:37:50;13.10;99.90
2603;DHT22;1311;47.966;7.958;2023-09-30T03:40:18;13.00;99.90
2603;DHT22;1311;47.966;7.958;2023-09-30T03:42:46;13.00;99.90
2603;DHT22;1311;47.966;7.958;2023-09-30T03:45:15;12.90;99.90
2603;DHT22;1311;47.966;7.958;2023-09-30T03:47:42;12.90;99.90
2603;DHT22;1311;47.966;7.958;2023-09-30T03:50:10;12.90;99.90
2603;DHT22;1311;47.966;7.958;2023-09-30T03:52:41;12.90;99.90
2603;DHT22;1311;47.966;7.958;2023-09-30T03:55:10;12.80;99.90
2603;DHT22;1311;47.966;7.958;2023-09-30T03:57:38;12.80;99.90
2603;DHT22;1311;47.966;7.958;2023-09-30T04:00:06;12.70;99.90
2603;DHT22;1311;47.966;7.958;2023-09-30T04:02:37;12.70;99.90
2603;DHT22;1311;47.966;7.958;2023-09-30T04:05:04;12.60;99.90
2603;DHT22;1311;47.966;7.958;2023-09-30T04:07:31;12.60;99.90
2603;DHT22;1311;47.966;7.958;2023-09-30T04:09:58;12.60;99.90
2603;DHT22;1311;47.966;7.958;2023-09-30T04:12:26;12.50;99.90
2603;DHT22;1311;47.966;7.958;2023-09-30T04:14:55;12.50;99.90
2603;DHT22;1311;47.966;7.958;2023-09-30T04:17:22;12.50;99.90
2603;DHT22;1311;47.966;7.958;2023-09-30T04:19:49;12.50;99.90
2603;DHT22;1311;47.966;7.958;2023-09-30T04:22:17;12.50;99.90
2603;DHT22;1311;47.966;7.958;2023-09-30T04:24:44;12.50;99.90
2603;DHT22;1311;47.966;7.958;2023-09-30T04:27:11;12.50;99.90
2603;DHT22;1311;47.966;7.958;2023-09-30T04:29:38;12.50;99.90
2603;DHT22;1311;47.966;7.958;2023-09-30T04:32:06;12.50;99.90
2603;DHT22;1311;47.966;7.958;2023-09-30T04:34:32;12.50;99.90
2603;DHT22;1311;47.966;7.958;2023-09-30T04:36:59;12.50;99.90
2603;DHT22;1311;47.966;7.958;2023-09-30T04:39:27;12.50;99.90
2603;DHT22;1311;47.966;7.958;2023-09-30T04:41:53;12.60;99.90
2603;DHT22;1311;47.966;7.958;2023-09-30T04:44:21;12.50;99.90
2603;DHT22;1311;47.966;7.958;2023-09-30T04:46:48;12.60;99.90
2603;DHT22;1311;47.966;7.958;2023-09-30T04:49:16;12.60;99.90
2603;DHT22;1311;47.966;7.958;2023-09-30T04:51:43;12.70;99.90
2603;DHT22;1311;47.966;7.958;2023-09-30T04:54:09;12.80;99.90
2603;DHT22;1311;47.966;7.958;2023-09-30T04:56:36;12.80;99.90
2603;DHT22;1311;47.966;7.958;2023-09-30T04:59:04;12.80;99.90
2603;DHT22;1311;47.966;7.958;2023-09-30T05:01:31;12.80;99.90
2603;DHT22;1311;47.966;7.958;2023-09-30T05:03:58;12.80;99.90
2603;DHT22;1311;47.966;7.958;2023-09-30T05:06:27;12.90;99.90
2603;DHT22;1311;47.966;7.958;2023-09-30T05:08:53;12.90;99.90
2603;DHT22;1311;47.966;7.958;2023-09-30T05:11:21;12.90;99.90
2603;DHT22;1311;47.966;7.958;2023-09-30T05:13:48;13.00;99.90
2603;DHT22;1311;47.966;7.958;2023-09-30T05:16:15;13.10;99.90
2603;DHT22;1311;47.966;7.958;2023-09-30T05:18:42;13.20;99.90
2603;DHT22;1311;47.966;7.958;2023-09-30T05:21:08;13.20;99.90
2603;DHT22;1311;47.966;7.958;2023-09-30T05:23:37;13.30;99.90
2603;DHT22;1311;47.966;7.958;2023-09-30T05:26:04;13.30;99.90
2603;DHT22;1311;47.966;7.958;2023-09-30T05:28:32;13.20;99.90
2603;DHT22;1311;47.966;7.958;2023-09-30T05:30:58;13.20;99.90
2603;DHT22;1311;47.966;7.958;2023-09-30T05:33:25;13.30;99.90
2603;DHT22;1311;47.966;7.958;2023-09-30T05:35:53;13.30;99.90
2603;DHT22;1311;47.966;7.958;2023-09-30T05:38:20;13.30;99.90
2603;DHT22;1311;47.966;7.958;2023-09-30T05:40:50;13.30;99.90
2603;DHT22;1311;47.966;7.958;2023-09-30T05:43:16;13.40;99.90
2603;DHT22;1311;47.966;7.958;2023-09-30T05:45:43;13.40;99.90
2603;DHT22;1311;47.966;7.958;2023-09-30T05:48:14;13.50;99.90
2603;DHT22;1311;47.966;7.958;2023-09-30T05:50:41;13.50;99.90
2603;DHT22;1311;47.966;7.958;2023-09-30T05:53:09;13.50;99.90
2603;DHT22;1311;47.966;7.958;2023-09-30T05:55:37;13.40;99.90
2603;DHT22;1311;47.966;7.958;2023-09-30T05:58:05;13.30;99.90
2603;DHT22;1311;47.966;7.958;2023-09-30T06:00:32;13.30;99.90
2603;DHT22;1311;47.966;7.958;2023-09-30T06:03:00;13.40;99.90
2603;DHT22;1311;47.966;7.958;2023-09-30T06:05:29;13.50;99.90
2603;DHT22;1311;47.966;7.958;2023-09-30T06:07:58;13.60;99.90
2603;DHT22;1311;47.966;7.958;2023-09-30T06:10:25;13.70;99.90
2603;DHT22;1311;47.966;7.958;2023-09-30T06:12:53;13.80;99.90
2603;DHT22;1311;47.966;7.958;2023-09-30T06:15:22;14.00;99.90
2603;DHT22;1311;47.966;7.958;2023-09-30T06:17:51;14.10;99.90
2603;DHT22;1311;47.966;7.958;2023-09-30T06:20:18;14.10;99.90
2603;DHT22;1311;47.966;7.958;2023-09-30T06:22:48;14.20;99.90
2603;DHT22;1311;47.966;7.958;2023-09-30T06:25:16;14.30;99.90
2603;DHT22;1311;47.966;7.958;2023-09-30T06:27:43;14.50;99.90
2603;DHT22;1311;47.966;7.958;2023-09-30T06:30:10;14.40;99.90
2603;DHT22;1311;47.966;7.958;2023-09-30T06:32:39;14.40;99.90
2603;DHT22;1311;47.966;7.958;2023-09-30T06:35:08;14.40;99.90
2603;DHT22;1311;47.966;7.958;2023-09-30T06:37:36;14.30;99.90
2603;DHT22;1311;47.966;7.958;2023-09-30T06:40:03;14.40;99.90
2603;DHT22;1311;47.966;7.958;2023-09-30T06:42:30;14.50;99.90
2603;DHT22;1311;47.966;7.958;2023-09-30T06:44:57;14.60;99.90
2603;DHT22;1311;47.966;7.958;2023-09-30T06:47:24;14.90;99.90
2603;DHT22;1311;47.966;7.958;2023-09-30T06:49:52;14.90;99.90
2603;DHT22;1311;47.966;7.958;2023-09-30T06:52:19;15.10;99.90
2603;DHT22;1311;47.966;7.958;2023-09-30T06:54:46;15.30;99.90
2603;DHT22;1311;47.966;7.958;2023-09-30T06:57:13;15.40;99.90
2603;DHT22;1311;47.966;7.958;2023-09-30T06:59:39;15.50;99.90
2603;DHT22;1311;47.966;7.958;2023-09-30T07:02:06;15.60;99.90
2603;DHT22;1311;47.966;7.958;2023-09-30T07:04:33;15.60;99.90
2603;DHT22;1311;47.966;7.958;2023-09-30T07:07:01;15.70;99.90
2603;DHT22;1311;47.966;7.958;2023-09-30T07:09:28;15.80;99.90
2603;DHT22;1311;47.966;7.958;2023-09-30T07:11:55;16.00;99.90
2603;DHT22;1311;47.966;7.958;2023-09-30T07:14:22;16.10;99.90
2603;DHT22;1311;47.966;7.958;2023-09-30T07:16:49;16.20;99.90
2603;DHT22;1311;47.966;7.958;2023-09-30T07:19:16;16.40;99.90
2603;DHT22;1311;47.966;7.958;2023-09-30T07:21:42;16.50;99.90
2603;DHT22;1311;47.966;7.958;2023-09-30T07:24:10;16.60;99.90
2603;DHT22;1311;47.966;7.958;2023-09-30T07:26:37;16.60;99.90
2603;DHT22;1311;47.966;7.958;2023-09-30T07:29:04;16.80;99.90
2603;DHT22;1311;47.966;7.958;2023-09-30T07:31:34;16.90;99.90
2603;DHT22;1311;47.966;7.958;2023-09-30T07:34:01;17.00;99.90
2603;DHT22;1311;47.966;7.958;2023-09-30T07:36:28;17.20;99.90
2603;DHT22;1311;47.966;7.958;2023-09-30T07:38:55;17.30;99.90
2603;DHT22;1311;47.966;7.958;2023-09-30T07:41:23;17.20;99.90
2603;DHT22;1311;47.966;7.958;2023-09-30T07:43:50;17.30;99.90
2603;DHT22;1311;47.966;7.958;2023-09-30T07:46:16;17.50;99.90
2603;DHT22;1311;47.966;7.958;2023-09-30T07:48:46;17.70;99.90
2603;DHT22;1311;47.966;7.958;2023-09-30T07:51:13;17.90;99.90
2603;DHT22;1311;47.966;7.958;2023-09-30T07:53:40;17.90;99.90
2603;DHT22;1311;47.966;7.958;2023-09-30T07:56:07;17.90;99.90
2603;DHT22;1311;47.966;7.958;2023-09-30T07:58:35;17.90;99.90
2603;DHT22;1311;47.966;7.958;2023-09-30T08:01:02;17.90;99.90
2603;DHT22;1311;47.966;7.958;2023-09-30T08:03:29;18.00;99.90
2603;DHT22;1311;47.966;7.958;2023-09-30T08:05:56;18.20;99.90
2603;DHT22;1311;47.966;7.958;2023-09-30T08:08:24;18.40;99.90
2603;DHT22;1311;47.966;7.958;2023-09-30T08:10:51;18.50;99.90
2603;DHT22;1311;47.966;7.958;2023-09-30T08:13:21;18.70;99.90
2603;DHT22;1311;47.966;7.958;2023-09-30T08:15:49;18.80;99.90
2603;DHT22;1311;47.966;7.958;2023-09-30T08:18:16;18.80;99.90
2603;DHT22;1311;47.966;7.958;2023-09-30T08:20:44;18.70;99.90
2603;DHT22;1311;47.966;7.958;2023-09-30T08:23:11;18.90;99.90
2603;DHT22;1311;47.966;7.958;2023-09-30T08:25:38;19.00;99.90
2603;DHT22;1311;47.966;7.958;2023-09-30T08:28:05;18.90;99.90
2603;DHT22;1311;47.966;7.958;2023-09-30T08:30:32;19.00;99.90
2603;DHT22;1311;47.966;7.958;2023-09-30T08:33:01;19.00;99.90
2603;DHT22;1311;47.966;7.958;2023-09-30T08:35:29;19.10;99.90
2603;DHT22;1311;47.966;7.958;2023-09-30T08:37:57;19.30;99.90
2603;DHT22;1311;47.966;7.958;2023-09-30T08:43:37;19.40;99.90
2603;DHT22;1311;47.966;7.958;2023-09-30T08:46:05;19.50;99.90
2603;DHT22;1311;47.966;7.958;2023-09-30T08:48:33;19.30;99.90
2603;DHT22;1311;47.966;7.958;2023-09-30T08:51:02;19.20;99.90
2603;DHT22;1311;47.966;7.958;2023-09-30T08:53:29;19.20;99.90
2603;DHT22;1311;47.966;7.958;2023-09-30T08:55:57;19.20;99.90
2603;DHT22;1311;47.966;7.958;2023-09-30T08:58:27;19.20;99.90
2603;DHT22;1311;47.966;7.958;2023-09-30T09:00:54;19.20;99.90
2603;DHT22;1311;47.966;7.958;2023-09-30T09:03:21;19.30;99.90
2603;DHT22;1311;47.966;7.958;2023-09-30T09:05:54;19.30;99.90
2603;DHT22;1311;47.966;7.958;2023-09-30T09:08:22;19.60;99.90
2603;DHT22;1311;47.966;7.958;2023-09-30T09:10:59;19.70;99.90
2603;DHT22;1311;47.966;7.958;2023-09-30T09:13:28;19.60;99.90
2603;DHT22;1311;47.966;7.958;2023-09-30T09:16:11;19.70;99.90
2603;DHT22;1311;47.966;7.958;2023-09-30T09:18:38;19.50;99.90
2603;DHT22;1311;47.966;7.958;2023-09-30T09:21:11;19.50;99.90
2603;DHT22;1311;47.966;7.958;2023-09-30T09:23:40;19.40;99.90
2603;DHT22;1311;47.966;7.958;2023-09-30T09:26:08;19.40;99.90
2603;DHT22;1311;47.966;7.958;2023-09-30T09:28:35;19.50;99.90
2603;DHT22;1311;47.966;7.958;2023-09-30T09:31:19;19.70;99.90
2603;DHT22;1311;47.966;7.958;2023-09-30T09:33:47;19.40;99.90
2603;DHT22;1311;47.966;7.958;2023-09-30T09:36:16;19.50;99.90
2603;DHT22;1311;47.966;7.958;2023-09-30T09:38:45;19.60;99.90
2603;DHT22;1311;47.966;7.958;2023-09-30T09:41:13;19.70;99.90
2603;DHT22;1311;47.966;7.958;2023-09-30T09:43:41;19.70;99.90
2603;DHT22;1311;47.966;7.958;2023-09-30T09:46:09;19.90;99.90
2603;DHT22;1311;47.966;7.958;2023-09-30T09:48:36;19.90;99.90
2603;DHT22;1311;47.966;7.958;2023-09-30T09:51:09;20.00;99.90
2603;DHT22;1311;47.966;7.958;2023-09-30T09:53:41;20.20;99.90
2603;DHT22;1311;47.966;7.958;2023-09-30T09:56:09;20.20;99.90
2603;DHT22;1311;47.966;7.958;2023-09-30T09:58:38;20.30;99.90
2603;DHT22;1311;47.966;7.958;2023-09-30T10:01:07;20.30;99.90
2603;DHT22;1311;47.966;7.958;2023-09-30T10:03:36;20.20;99.90
2603;DHT22;1311;47.966;7.958;2023-09-30T10:06:04;20.30;99.90
2603;DHT22;1311;47.966;7.958;2023-09-30T10:08:33;20.10;99.90
2603;DHT22;1311;47.966;7.958;2023-09-30T10:11:03;20.10;99.90
2603;DHT22;1311;47.966;7.958;2023-09-30T10:13:49;20.10;99.90
2603;DHT22;1311;47.966;7.958;2023-09-30T10:16:46;20.00;99.90
2603;DHT22;1311;47.966;7.958;2023-09-30T10:19:14;20.00;99.90
2603;DHT22;1311;47.966;7.958;2023-09-30T10:24:42;20.20;99.90
2603;DHT22;1311;47.966;7.958;2023-09-30T10:27:30;20.30;99.90
2603;DHT22;1311;47.966;7.958;2023-09-30T10:29:58;20.40;99.90
2603;DHT22;1311;47.966;7.958;2023-09-30T10:35:50;20.30;99.90
2603;DHT22;1311;47.966;7.958;2023-09-30T10:38:40;20.30;99.90
2603;DHT22;1311;47.966;7.958;2023-09-30T10:41:09;20.50;99.90
2603;DHT22;1311;47.966;7.958;2023-09-30T10:43:40;20.50;99.90
2603;DHT22;1311;47.966;7.958;2023-09-30T10:46:31;20.60;99.90
2603;DHT22;1311;47.966;7.958;2023-09-30T10:49:17;20.90;86.30
2603;DHT22;1311;47.966;7.958;2023-09-30T10:51:58;21.10;13.10
2603;DHT22;1311;47.966;7.958;2023-09-30T10:54:26;20.90;1.00
2603;DHT22;1311;47.966;7.958;2023-09-30T10:56:54;20.90;1.00
2603;DHT22;1311;47.966;7.958;2023-09-30T10:59:23;21.00;1.00
2603;DHT22;1311;47.966;7.958;2023-09-30T11:01:51;21.10;1.00
2603;DHT22;1311;47.966;7.958;2023-09-30T11:04:19;21.20;1.00
2603;DHT22;1311;47.966;7.958;2023-09-30T11:06:46;21.10;99.90
2603;DHT22;1311;47.966;7.958;2023-09-30T11:09:16;21.00;99.90
2603;DHT22;1311;47.966;7.958;2023-09-30T11:11:44;21.10;99.90
2603;DHT22;1311;47.966;7.958;2023-09-30T11:14:18;21.20;99.90
2603;DHT22;1311;47.966;7.958;2023-09-30T11:16:47;21.40;99.90
2603;DHT22;1311;47.966;7.958;2023-09-30T11:19:15;21.60;99.90
2603;DHT22;1311;47.966;7.958;2023-09-30T11:21:42;21.70;1.00
2603;DHT22;1311;47.966;7.958;2023-09-30T11:24:10;21.60;99.90
2603;DHT22;1311;47.966;7.958;2023-09-30T11:26:37;21.70;99.90
2603;DHT22;1311;47.966;7.958;2023-09-30T11:29:06;21.90;10.60
2603;DHT22;1311;47.966;7.958;2023-09-30T11:31:33;21.90;1.00
2603;DHT22;1311;47.966;7.958;2023-09-30T11:34:04;21.80;1.00
2603;DHT22;1311;47.966;7.958;2023-09-30T11:36:33;21.60;1.00
2603;DHT22;1311;47.966;7.958;2023-09-30T11:39:00;21.90;99.90
2603;DHT22;1311;47.966;7.958;2023-09-30T11:41:35;22.30;99.90
2603;DHT22;1311;47.966;7.958;2023-09-30T11:44:05;22.40;1.00
2603;DHT22;1311;47.966;7.958;2023-09-30T11:46:33;22.60;99.90
2603;DHT22;1311;47.966;7.958;2023-09-30T11:49:01;22.80;1.00
2603;DHT22;1311;47.966;7.958;2023-09-30T11:51:29;22.90;99.90
2603;DHT22;1311;47.966;7.958;2023-09-30T11:53:56;23.00;1.00
2603;DHT22;1311;47.966;7.958;2023-09-30T11:56:24;23.10;1.00
2603;DHT22;1311;47.966;7.958;2023-09-30T11:58:55;23.00;1.00
2603;DHT22;1311;47.966;7.958;2023-09-30T12:01:22;22.90;1.00
2603;DHT22;1311;47.966;7.958;2023-09-30T12:03:51;22.90;1.00
2603;DHT22;1311;47.966;7.958;2023-09-30T12:06:18;22.80;1.00
2603;DHT22;1311;47.966;7.958;2023-09-30T12:08:46;22.70;99.90
2603;DHT22;1311;47.966;7.958;2023-09-30T12:11:13;23.10;99.90
2603;DHT22;1311;47.966;7.958;2023-09-30T12:13:41;23.20;99.90
2603;DHT22;1311;47.966;7.958;2023-09-30T12:16:10;23.10;99.90
2603;DHT22;1311;47.966;7.958;2023-09-30T12:18:36;22.90;11.20
2603;DHT22;1311;47.966;7.958;2023-09-30T12:21:03;23.00;1.00
2603;DHT22;1311;47.966;7.958;2023-09-30T12:23:32;22.80;1.00
2603;DHT22;1311;47.966;7.958;2023-09-30T12:26:00;22.80;1.00
2603;DHT22;1311;47.966;7.958;2023-09-30T12:28:31;22.80;99.90
2603;DHT22;1311;47.966;7.958;2023-09-30T12:30:58;22.80;1.00
2603;DHT22;1311;47.966;7.958;2023-09-30T12:33:27;22.90;1.00
2603;DHT22;1311;47.966;7.958;2023-09-30T12:35:53;22.90;1.00
2603;DHT22;1311;47.966;7.958;2023-09-30T12:38:20;22.90;1.00
2603;DHT22;1311;47.966;7.958;2023-09-30T12:40:47;22.70;99.90
2603;DHT22;1311;47.966;7.958;2023-09-30T12:43:15;22.80;99.90
2603;DHT22;1311;47.966;7.958;2023-09-30T12:45:42;23.00;99.90
2603;DHT22;1311;47.966;7.958;2023-09-30T12:48:09;23.00;99.90
2603;DHT22;1311;47.966;7.958;2023-09-30T12:50:36;22.80;99.90
2603;DHT22;1311;47.966;7.958;2023-09-30T12:53:03;22.90;99.90
2603;DHT22;1311;47.966;7.958;2023-09-30T12:55:30;23.10;99.90
2603;DHT22;1311;47.966;7.958;2023-09-30T12:57:57;23.40;99.90
2603;DHT22;1311;47.966;7.958;2023-09-30T13:00:26;23.60;99.90
2603;DHT22;1311;47.966;7.958;2023-09-30T13:02:56;23.70;99.90
2603;DHT22;1311;47.966;7.958;2023-09-30T13:05:23;23.60;99.90
2603;DHT22;1311;47.966;7.958;2023-09-30T13:07:50;24.00;99.90
2603;DHT22;1311;47.966;7.958;2023-09-30T13:10:18;24.10;99.90
2603;DHT22;1311;47.966;7.958;2023-09-30T13:12:45;24.30;99.90
2603;DHT22;1311;47.966;7.958;2023-09-30T13:15:12;24.30;69.80
2603;DHT22;1311;47.966;7.958;2023-09-30T13:17:41;23.90;1.00
2603;DHT22;1311;47.966;7.958;2023-09-30T13:20:09;23.70;27.10
2603;DHT22;1311;47.966;7.958;2023-09-30T13:22:37;23.60;20.70
2603;DHT22;1311;47.966;7.958;2023-09-30T13:25:05;23.70;40.60
2603;DHT22;1311;47.966;7.958;2023-09-30T13:27:31;23.60;17.80
2603;DHT22;1311;47.966;7.958;2023-09-30T13:29:58;23.50;30.60
2603;DHT22;1311;47.966;7.958;2023-09-30T13:32:27;23.60;12.50
2603;DHT22;1311;47.966;7.958;2023-09-30T13:34:55;23.70;1.00
2603;DHT22;1311;47.966;7.958;2023-09-30T13:37:21;23.60;1.00
2603;DHT22;1311;47.966;7.958;2023-09-30T13:39:55;23.70;1.00
2603;DHT22;1311;47.966;7.958;2023-09-30T13:42:22;23.70;1.00
2603;DHT22;1311;47.966;7.958;2023-09-30T13:44:48;23.50;1.00
2603;DHT22;1311;47.966;7.958;2023-09-30T13:47:15;23.20;1.00
2603;DHT22;1311;47.966;7.958;2023-09-30T13:49:42;23.10;1.00
2603;DHT22;1311;47.966;7.958;2023-09-30T13:52:10;22.90;1.00
2603;DHT22;1311;47.966;7.958;2023-09-30T13:54:37;23.00;1.00
2603;DHT22;1311;47.966;7.958;2023-09-30T13:57:04;22.90;1.00
2603;DHT22;1311;47.966;7.958;2023-09-30T13:59:33;22.80;1.00
2603;DHT22;1311;47.966;7.958;2023-09-30T14:02:00;22.70;1.00
2603;DHT22;1311;47.966;7.958;2023-09-30T14:04:29;22.70;1.00
2603;DHT22;1311;47.966;7.958;2023-09-30T14:06:57;22.60;1.00
2603;DHT22;1311;47.966;7.958;2023-09-30T14:09:26;22.60;1.00
2603;DHT22;1311;47.966;7.958;2023-09-30T14:11:53;22.40;1.00
2603;DHT22;1311;47.966;7.958;2023-09-30T14:14:20;22.30;1.00
2603;DHT22;1311;47.966;7.958;2023-09-30T14:16:47;22.40;1.00
2603;DHT22;1311;47.966;7.958;2023-09-30T14:19:13;22.40;1.00
2603;DHT22;1311;47.966;7.958;2023-09-30T14:21:40;22.30;1.00
2603;DHT22;1311;47.966;7.958;2023-09-30T14:24:07;22.50;1.00
2603;DHT22;1311;47.966;7.958;2023-09-30T14:26:35;22.50;1.00
2603;DHT22;1311;47.966;7.958;2023-09-30T14:29:03;22.30;1.00
2603;DHT22;1311;47.966;7.958;2023-09-30T14:31:30;22.20;1.00
2603;DHT22;1311;47.966;7.958;2023-09-30T14:33:56;22.10;1.00
2603;DHT22;1311;47.966;7.958;2023-09-30T14:36:23;21.90;1.00
2603;DHT22;1311;47.966;7.958;2023-09-30T14:38:50;21.70;1.00
2603;DHT22;1311;47.966;7.958;2023-09-30T14:41:17;21.60;1.00
2603;DHT22;1311;47.966;7.958;2023-09-30T14:43:45;21.50;1.00
2603;DHT22;1311;47.966;7.958;2023-09-30T14:46:12;21.40;1.00
2603;DHT22;1311;47.966;7.958;2023-09-30T14:48:39;21.50;1.00
2603;DHT22;1311;47.966;7.958;2023-09-30T14:51:07;21.50;1.00
2603;DHT22;1311;47.966;7.958;2023-09-30T14:53:34;21.40;1.00
2603;DHT22;1311;47.966;7.958;2023-09-30T14:56:01;21.40;1.00
2603;DHT22;1311;47.966;7.958;2023-09-30T14:58:28;21.50;1.00
2603;DHT22;1311;47.966;7.958;2023-09-30T15:00:56;21.40;1.00
2603;DHT22;1311;47.966;7.958;2023-09-30T15:03:23;21.40;1.00
2603;DHT22;1311;47.966;7.958;2023-09-30T15:05:57;21.30;1.00
2603;DHT22;1311;47.966;7.958;2023-09-30T15:08:24;21.30;1.00
2603;DHT22;1311;47.966;7.958;2023-09-30T15:10:51;21.30;1.00
2603;DHT22;1311;47.966;7.958;2023-09-30T15:13:20;21.30;1.00
2603;DHT22;1311;47.966;7.958;2023-09-30T15:15:47;21.10;1.00
2603;DHT22;1311;47.966;7.958;2023-09-30T15:18:15;21.10;31.50
2603;DHT22;1311;47.966;7.958;2023-09-30T15:20:42;21.10;3.10
2603;DHT22;1311;47.966;7.958;2023-09-30T15:23:09;21.00;1.00
2603;DHT22;1311;47.966;7.958;2023-09-30T15:25:40;21.10;1.00
2603;DHT22;1311;47.966;7.958;2023-09-30T15:28:07;21.00;24.70
2603;DHT22;1311;47.966;7.958;2023-09-30T15:30:34;20.90;94.90
2603;DHT22;1311;47.966;7.958;2023-09-30T15:33:01;20.70;97.90
2603;DHT22;1311;47.966;7.958;2023-09-30T15:35:29;20.70;99.90
2603;DHT22;1311;47.966;7.958;2023-09-30T15:37:56;20.50;99.90
2603;DHT22;1311;47.966;7.958;2023-09-30T15:40:24;20.50;99.90
2603;DHT22;1311;47.966;7.958;2023-09-30T15:42:50;20.50;99.90
2603;DHT22;1311;47.966;7.958;2023-09-30T15:45:17;20.40;99.90
2603;DHT22;1311;47.966;7.958;2023-09-30T15:47:44;20.40;99.90
2603;DHT22;1311;47.966;7.958;2023-09-30T15:50:11;20.30;99.90
2603;DHT22;1311;47.966;7.958;2023-09-30T15:52:39;20.30;99.90
2603;DHT22;1311;47.966;7.958;2023-09-30T15:55:07;20.30;1.00
2603;DHT22;1311;47.966;7.958;2023-09-30T15:57:33;20.20;1.00
2603;DHT22;1311;47.966;7.958;2023-09-30T16:00:00;20.10;1.00
2603;DHT22;1311;47.966;7.958;2023-09-30T16:02:27;20.10;1.00
2603;DHT22;1311;47.966;7.958;2023-09-30T16:04:54;20.00;1.00
2603;DHT22;1311;47.966;7.958;2023-09-30T16:07:21;20.00;17.00
2603;DHT22;1311;47.966;7.958;2023-09-30T16:09:49;19.90;99.90
2603;DHT22;1311;47.966;7.958;2023-09-30T16:12:16;19.80;99.90
2603;DHT22;1311;47.966;7.958;2023-09-30T16:14:43;19.70;99.90
2603;DHT22;1311;47.966;7.958;2023-09-30T16:17:09;19.60;99.90
2603;DHT22;1311;47.966;7.958;2023-09-30T16:19:37;19.60;99.90